sensor_id;sensor_type;location;lat;lon;timestamp;P1;durP1;ratioP1;P2;durP2;ratioP2
20491;SDS011;10404;51.468;6.762;2023-08-24T00:02:05;3.70;;;3.33;;
20491;SDS011;10404;51.468;6.762;2023-08-24T00:04:31;3.90;;;3.60;;
20491;SDS011;10404;51.468;6.762;2023-08-24T00:06:57;3.85;;;3.47;;
20491;SDS011;10404;51.468;6.762;2023-08-24T00:09:23;4.15;;;3.50;;
20491;SDS011;10404;51.468;6.762;2023-08-24T00:11:48;4.50;;;3.40;;
20491;SDS011;10404;51.468;6.762;2023-08-24T00:14:15;4.38;;;3.67;;
20491;SDS011;10404;51.468;6.762;2023-08-24T00:16:40;3.90;;;3.25;;
20491;SDS011;10404;51.468;6.762;2023-08-24T00:19:07;3.88;;;2.92;;
20491;SDS011;10404;51.468;6.762;2023-08-24T00:21:32;4.75;;;3.28;;
20491;SDS011;10404;51.468;6.762;2023-08-24T00:23:58;4.60;;;3.45;;
20491;SDS011;10404;51.468;6.762;2023-08-24T00:26:24;4.43;;;3.55;;
20491;SDS011;10404;51.468;6.762;2023-08-24T00:28:50;4.10;;;3.47;;
20491;SDS011;10404;51.468;6.762;2023-08-24T00:31:16;3.30;;;3.00;;
20491;SDS011;10404;51.468;6.762;2023-08-24T00:33:42;4.15;;;3.22;;
20491;SDS011;10404;51.468;6.762;2023-08-24T00:36:08;3.85;;;3.08;;
20491;SDS011;10404;51.468;6.762;2023-08-24T00:38:34;4.40;;;3.83;;
20491;SDS011;10404;51.468;6.762;2023-08-24T00:40:59;4.15;;;3.75;;
20491;SDS011;10404;51.468;6.762;2023-08-24T00:43:26;3.60;;;3.22;;
20491;SDS011;10404;51.468;6.762;2023-08-24T00:45:52;4.88;;;3.97;;
20491;SDS011;10404;51.468;6.762;2023-08-24T00:48:21;5.30;;;3.22;;
20491;SDS011;10404;51.468;6.762;2023-08-24T00:51:00;4.00;;;3.60;;
20491;SDS011;10404;51.468;6.762;2023-08-24T00:53:27;4.60;;;3.30;;
20491;SDS011;10404;51.468;6.762;2023-08-24T00:55:54;4.47;;;3.38;;
20491;SDS011;10404;51.468;6.762;2023-08-24T00:58:20;4.43;;;3.40;;
20491;SDS011;10404;51.468;6.762;2023-08-24T01:00:46;4.55;;;4.15;;
20491;SDS011;10404;51.468;6.762;2023-08-24T01:03:14;4.00;;;3.38;;
20491;SDS011;10404;51.468;6.762;2023-08-24T01:05:39;4.47;;;3.53;;
20491;SDS011;10404;51.468;6.762;2023-08-24T01:08:05;5.00;;;3.35;;
20491;SDS011;10404;51.468;6.762;2023-08-24T01:10:36;4.75;;;3.45;;
20491;SDS011;10404;51.468;6.762;2023-08-24T01:13:11;3.65;;;3.35;;
20491;SDS011;10404;51.468;6.762;2023-08-24T01:15:52;6.35;;;3.60;;
20491;SDS011;10404;51.468;6.762;2023-08-24T01:18:25;5.47;;;3.65;;
20491;SDS011;10404;51.468;6.762;2023-08-24T01:20:53;4.40;;;4.00;;
20491;SDS011;10404;51.468;6.762;2023-08-24T01:26:13;4.45;;;3.92;;
20491;SDS011;10404;51.468;6.762;2023-08-24T01:28:43;4.38;;;3.60;;
20491;SDS011;10404;51.468;6.762;2023-08-24T01:31:10;4.55;;;3.35;;
20491;SDS011;10404;51.468;6.762;2023-08-24T01:33:36;4.55;;;4.03;;
20491;SDS011;10404;51.468;6.762;2023-08-24T01:36:02;4.07;;;3.72;;
20491;SDS011;10404;51.468;6.762;2023-08-24T01:38:28;5.00;;;3.90;;
20491;SDS011;10404;51.468;6.762;2023-08-24T01:41:14;4.40;;;3.53;;
20491;SDS011;10404;51.468;6.762;2023-08-24T01:43:45;4.53;;;3.80;;
20491;SDS011;10404;51.468;6.762;2023-08-24T01:46:14;4.60;;;3.38;;
20491;SDS011;10404;51.468;6.762;2023-08-24T01:48:42;4.07;;;3.67;;
20491;SDS011;10404;51.468;6.762;2023-08-24T01:51:09;4.63;;;3.63;;
20491;SDS011;10404;51.468;6.762;2023-08-24T01:53:36;3.90;;;3.50;;
20491;SDS011;10404;51.468;6.762;2023-08-24T01:56:13;4.40;;;3.33;;
20491;SDS011;10404;51.468;6.762;2023-08-24T01:58:41;4.43;;;3.53;;
20491;SDS011;10404;51.468;6.762;2023-08-24T02:01:07;4.55;;;4.15;;
20491;SDS011;10404;51.468;6.762;2023-08-24T02:03:35;4.53;;;3.15;;
20491;SDS011;10404;51.468;6.762;2023-08-24T02:06:01;4.78;;;3.67;;
20491;SDS011;10404;51.468;6.762;2023-08-24T02:08:26;4.70;;;3.47;;
20491;SDS011;10404;51.468;6.762;2023-08-24T02:10:52;4.40;;;4.00;;
20491;SDS011;10404;51.468;6.762;2023-08-24T02:13:18;3.97;;;3.58;;
20491;SDS011;10404;51.468;6.762;2023-08-24T02:15:43;4.97;;;3.97;;
20491;SDS011;10404;51.468;6.762;2023-08-24T02:18:09;4.35;;;3.95;;
20491;SDS011;10404;51.468;6.762;2023-08-24T02:20:35;5.70;;;4.35;;
20491;SDS011;10404;51.468;6.762;2023-08-24T02:23:01;5.28;;;4.40;;
20491;SDS011;10404;51.468;6.762;2023-08-24T02:25:28;4.28;;;3.88;;
20491;SDS011;10404;51.468;6.762;2023-08-24T02:27:53;4.45;;;3.95;;
20491;SDS011;10404;51.468;6.762;2023-08-24T02:30:19;4.72;;;4.22;;
20491;SDS011;10404;51.468;6.762;2023-08-24T02:32:44;4.13;;;3.63;;
20491;SDS011;10404;51.468;6.762;2023-08-24T02:35:10;4.03;;;3.63;;
20491;SDS011;10404;51.468;6.762;2023-08-24T02:37:36;4.75;;;4.03;;
20491;SDS011;10404;51.468;6.762;2023-08-24T02:40:01;5.38;;;4.15;;
20491;SDS011;10404;51.468;6.762;2023-08-24T02:42:30;4.40;;;4.00;;
20491;SDS011;10404;51.468;6.762;2023-08-24T02:44:56;4.57;;;4.18;;
20491;SDS011;10404;51.468;6.762;2023-08-24T02:47:22;4.93;;;4.40;;
20491;SDS011;10404;51.468;6.762;2023-08-24T02:49:48;4.80;;;3.90;;
20491;SDS011;10404;51.468;6.762;2023-08-24T02:52:13;5.13;;;4.20;;
20491;SDS011;10404;51.468;6.762;2023-08-24T02:54:39;4.85;;;4.03;;
20491;SDS011;10404;51.468;6.762;2023-08-24T02:57:05;4.35;;;3.85;;
20491;SDS011;10404;51.468;6.762;2023-08-24T02:59:30;4.40;;;4.00;;
20491;SDS011;10404;51.468;6.762;2023-08-24T03:01:57;5.25;;;3.85;;
20491;SDS011;10404;51.468;6.762;2023-08-24T03:04:23;4.43;;;3.92;;
20491;SDS011;10404;51.468;6.762;2023-08-24T03:06:48;5.07;;;4.15;;
20491;SDS011;10404;51.468;6.762;2023-08-24T03:09:14;4.88;;;4.38;;
20491;SDS011;10404;51.468;6.762;2023-08-24T03:11:40;4.75;;;3.90;;
20491;SDS011;10404;51.468;6.762;2023-08-24T03:14:06;4.18;;;3.78;;
20491;SDS011;10404;51.468;6.762;2023-08-24T03:16:31;3.72;;;3.42;;
20491;SDS011;10404;51.468;6.762;2023-08-24T03:18:57;4.38;;;4.03;;
20491;SDS011;10404;51.468;6.762;2023-08-24T03:21:23;4.93;;;4.43;;
20491;SDS011;10404;51.468;6.762;2023-08-24T03:23:49;5.50;;;4.95;;
20491;SDS011;10404;51.468;6.762;2023-08-24T03:26:14;3.70;;;3.40;;
20491;SDS011;10404;51.468;6.762;2023-08-24T03:28:41;4.18;;;3.75;;
20491;SDS011;10404;51.468;6.762;2023-08-24T03:31:08;4.72;;;3.95;;
20491;SDS011;10404;51.468;6.762;2023-08-24T03:33:33;4.50;;;4.10;;
20491;SDS011;10404;51.468;6.762;2023-08-24T03:35:59;4.72;;;4.22;;
20491;SDS011;10404;51.468;6.762;2023-08-24T03:38:27;4.13;;;3.72;;
20491;SDS011;10404;51.468;6.762;2023-08-24T03:40:59;4.65;;;4.25;;
20491;SDS011;10404;51.468;6.762;2023-08-24T03:43:25;4.97;;;4.25;;
20491;SDS011;10404;51.468;6.762;2023-08-24T03:45:51;4.47;;;4.10;;
20491;SDS011;10404;51.468;6.762;2023-08-24T03:48:17;4.07;;;3.67;;
20491;SDS011;10404;51.468;6.762;2023-08-24T03:50:42;4.75;;;4.30;;
20491;SDS011;10404;51.468;6.762;2023-08-24T03:53:08;4.35;;;3.95;;
20491;SDS011;10404;51.468;6.762;2023-08-24T03:55:34;5.25;;;4.53;;
20491;SDS011;10404;51.468;6.762;2023-08-24T03:57:59;4.85;;;4.28;;
20491;SDS011;10404;51.468;6.762;2023-08-24T04:00:25;4.55;;;4.13;;
20491;SDS011;10404;51.468;6.762;2023-08-24T04:02:51;5.75;;;5.28;;
20491;SDS011;10404;51.468;6.762;2023-08-24T04:05:16;4.88;;;4.47;;
20491;SDS011;10404;51.468;6.762;2023-08-24T04:07:42;6.57;;;4.55;;
20491;SDS011;10404;51.468;6.762;2023-08-24T04:10:08;4.47;;;3.80;;
20491;SDS011;10404;51.468;6.762;2023-08-24T04:12:34;5.63;;;4.40;;
20491;SDS011;10404;51.468;6.762;2023-08-24T04:15:00;4.47;;;4.07;;
20491;SDS011;10404;51.468;6.762;2023-08-24T04:17:26;6.13;;;4.60;;
20491;SDS011;10404;51.468;6.762;2023-08-24T04:19:51;5.10;;;4.43;;
20491;SDS011;10404;51.468;6.762;2023-08-24T04:22:17;5.63;;;4.65;;
20491;SDS011;10404;51.468;6.762;2023-08-24T04:24:43;6.35;;;5.20;;
20491;SDS011;10404;51.468;6.762;2023-08-24T04:27:09;6.45;;;4.88;;
20491;SDS011;10404;51.468;6.762;2023-08-24T04:29:34;5.25;;;4.25;;
20491;SDS011;10404;51.468;6.762;2023-08-24T04:32:00;4.80;;;4.32;;
20491;SDS011;10404;51.468;6.762;2023-08-24T04:34:26;5.15;;;4.55;;
20491;SDS011;10404;51.468;6.762;2023-08-24T04:36:51;6.13;;;4.90;;
20491;SDS011;10404;51.468;6.762;2023-08-24T04:39:17;4.95;;;4.45;;
20491;SDS011;10404;51.468;6.762;2023-08-24T04:41:43;4.90;;;4.40;;
20491;SDS011;10404;51.468;6.762;2023-08-24T04:44:09;6.40;;;4.45;;
20491;SDS011;10404;51.468;6.762;2023-08-24T04:46:35;4.82;;;4.15;;
20491;SDS011;10404;51.468;6.762;2023-08-24T04:49:00;5.22;;;4.55;;
20491;SDS011;10404;51.468;6.762;2023-08-24T04:51:26;4.70;;;4.20;;
20491;SDS011;10404;51.468;6.762;2023-08-24T04:53:53;5.25;;;4.75;;
20491;SDS011;10404;51.468;6.762;2023-08-24T04:56:19;4.93;;;4.28;;
20491;SDS011;10404;51.468;6.762;2023-08-24T04:58:56;5.90;;;4.70;;
20491;SDS011;10404;51.468;6.762;2023-08-24T05:01:23;5.07;;;4.22;;
20491;SDS011;10404;51.468;6.762;2023-08-24T05:03:50;5.00;;;4.18;;
20491;SDS011;10404;51.468;6.762;2023-08-24T05:06:16;5.18;;;4.15;;
20491;SDS011;10404;51.468;6.762;2023-08-24T05:08:42;7.18;;;4.65;;
20491;SDS011;10404;51.468;6.762;2023-08-24T05:11:17;4.35;;;3.88;;
20491;SDS011;10404;51.468;6.762;2023-08-24T05:13:44;5.25;;;4.70;;
20491;SDS011;10404;51.468;6.762;2023-08-24T05:16:10;4.85;;;3.97;;
20491;SDS011;10404;51.468;6.762;2023-08-24T05:18:36;5.85;;;4.50;;
20491;SDS011;10404;51.468;6.762;2023-08-24T05:21:02;5.47;;;4.97;;
20491;SDS011;10404;51.468;6.762;2023-08-24T05:23:28;6.07;;;4.18;;
20491;SDS011;10404;51.468;6.762;2023-08-24T05:25:58;4.95;;;4.38;;
20491;SDS011;10404;51.468;6.762;2023-08-24T05:28:25;5.32;;;4.00;;
20491;SDS011;10404;51.468;6.762;2023-08-24T05:30:51;4.80;;;4.30;;
20491;SDS011;10404;51.468;6.762;2023-08-24T05:33:17;4.47;;;4.05;;
20491;SDS011;10404;51.468;6.762;2023-08-24T05:35:44;5.43;;;4.90;;
20491;SDS011;10404;51.468;6.762;2023-08-24T05:38:09;4.60;;;4.20;;
20491;SDS011;10404;51.468;6.762;2023-08-24T05:40:35;5.90;;;4.20;;
20491;SDS011;10404;51.468;6.762;2023-08-24T05:43:02;5.07;;;4.18;;
20491;SDS011;10404;51.468;6.762;2023-08-24T05:45:28;5.40;;;4.13;;
20491;SDS011;10404;51.468;6.762;2023-08-24T05:47:53;5.32;;;4.60;;
20491;SDS011;10404;51.468;6.762;2023-08-24T05:50:19;4.65;;;4.25;;
20491;SDS011;10404;51.468;6.762;2023-08-24T05:52:45;4.57;;;4.13;;
20491;SDS011;10404;51.468;6.762;2023-08-24T05:55:10;4.40;;;3.72;;
20491;SDS011;10404;51.468;6.762;2023-08-24T05:57:36;5.80;;;4.30;;
20491;SDS011;10404;51.468;6.762;2023-08-24T06:00:02;4.30;;;3.90;;
20491;SDS011;10404;51.468;6.762;2023-08-24T06:02:29;5.10;;;3.40;;
20491;SDS011;10404;51.468;6.762;2023-08-24T06:04:54;4.95;;;4.40;;
20491;SDS011;10404;51.468;6.762;2023-08-24T06:07:20;4.75;;;3.75;;
20491;SDS011;10404;51.468;6.762;2023-08-24T06:09:46;4.55;;;3.80;;
20491;SDS011;10404;51.468;6.762;2023-08-24T06:12:12;6.13;;;4.30;;
20491;SDS011;10404;51.468;6.762;2023-08-24T06:14:38;6.18;;;4.50;;
20491;SDS011;10404;51.468;6.762;2023-08-24T06:17:03;5.18;;;4.72;;
20491;SDS011;10404;51.468;6.762;2023-08-24T06:19:30;5.50;;;4.38;;
20491;SDS011;10404;51.468;6.762;2023-08-24T06:21:55;4.82;;;4.07;;
20491;SDS011;10404;51.468;6.762;2023-08-24T06:24:21;4.93;;;4.05;;
20491;SDS011;10404;51.468;6.762;2023-08-24T06:26:46;5.28;;;4.75;;
20491;SDS011;10404;51.468;6.762;2023-08-24T06:29:12;4.95;;;4.05;;
20491;SDS011;10404;51.468;6.762;2023-08-24T06:31:38;4.75;;;4.35;;
20491;SDS011;10404;51.468;6.762;2023-08-24T06:34:03;5.75;;;4.07;;
20491;SDS011;10404;51.468;6.762;2023-08-24T06:36:29;5.30;;;4.63;;
20491;SDS011;10404;51.468;6.762;2023-08-24T06:38:54;5.07;;;4.57;;
20491;SDS011;10404;51.468;6.762;2023-08-24T06:41:20;5.70;;;5.13;;
20491;SDS011;10404;51.468;6.762;2023-08-24T06:43:46;5.93;;;4.38;;
20491;SDS011;10404;51.468;6.762;2023-08-24T06:46:12;5.80;;;4.75;;
20491;SDS011;10404;51.468;6.762;2023-08-24T06:48:37;6.80;;;4.65;;
20491;SDS011;10404;51.468;6.762;2023-08-24T06:51:04;7.50;;;4.50;;
20491;SDS011;10404;51.468;6.762;2023-08-24T06:53:29;5.50;;;4.50;;
20491;SDS011;10404;51.468;6.762;2023-08-24T06:55:55;5.50;;;4.65;;
20491;SDS011;10404;51.468;6.762;2023-08-24T06:58:21;5.40;;;4.43;;
20491;SDS011;10404;51.468;6.762;2023-08-24T07:00:47;5.30;;;4.57;;
20491;SDS011;10404;51.468;6.762;2023-08-24T07:03:15;5.55;;;4.35;;
20491;SDS011;10404;51.468;6.762;2023-08-24T07:08:10;6.72;;;4.25;;
20491;SDS011;10404;51.468;6.762;2023-08-24T07:10:36;7.25;;;4.28;;
20491;SDS011;10404;51.468;6.762;2023-08-24T07:13:01;5.43;;;4.80;;
20491;SDS011;10404;51.468;6.762;2023-08-24T07:15:27;4.85;;;4.20;;
20491;SDS011;10404;51.468;6.762;2023-08-24T07:17:53;5.05;;;4.30;;
20491;SDS011;10404;51.468;6.762;2023-08-24T07:20:18;5.47;;;4.03;;
20491;SDS011;10404;51.468;6.762;2023-08-24T07:22:44;6.25;;;4.20;;
20491;SDS011;10404;51.468;6.762;2023-08-24T07:25:10;5.35;;;3.75;;
20491;SDS011;10404;51.468;6.762;2023-08-24T07:27:37;6.53;;;3.85;;
20491;SDS011;10404;51.468;6.762;2023-08-24T07:30:03;5.75;;;4.00;;
20491;SDS011;10404;51.468;6.762;2023-08-24T07:32:32;5.35;;;3.97;;
20491;SDS011;10404;51.468;6.762;2023-08-24T07:34:58;6.40;;;3.90;;
20491;SDS011;10404;51.468;6.762;2023-08-24T07:37:24;7.15;;;4.25;;
20491;SDS011;10404;51.468;6.762;2023-08-24T07:39:50;5.82;;;4.55;;
20491;SDS011;10404;51.468;6.762;2023-08-24T07:44:47;6.18;;;4.30;;
20491;SDS011;10404;51.468;6.762;2023-08-24T07:47:13;5.97;;;4.07;;
20491;SDS011;10404;51.468;6.762;2023-08-24T07:49:39;6.32;;;4.60;;
20491;SDS011;10404;51.468;6.762;2023-08-24T07:52:09;5.05;;;3.78;;
20491;SDS011;10404;51.468;6.762;2023-08-24T07:54:38;6.70;;;4.38;;
20491;SDS011;10404;51.468;6.762;2023-08-24T07:57:04;5.60;;;4.22;;
20491;SDS011;10404;51.468;6.762;2023-08-24T07:59:31;6.63;;;4.15;;
20491;SDS011;10404;51.468;6.762;2023-08-24T08:01:57;4.70;;;4.20;;
20491;SDS011;10404;51.468;6.762;2023-08-24T08:04:22;6.35;;;3.97;;
20491;SDS011;10404;51.468;6.762;2023-08-24T08:06:48;5.28;;;3.85;;
20491;SDS011;10404;51.468;6.762;2023-08-24T08:09:13;5.57;;;4.57;;
20491;SDS011;10404;51.468;6.762;2023-08-24T08:11:39;5.32;;;4.15;;
20491;SDS011;10404;51.468;6.762;2023-08-24T08:14:05;5.63;;;4.00;;
20491;SDS011;10404;51.468;6.762;2023-08-24T08:16:30;5.82;;;4.18;;
20491;SDS011;10404;51.468;6.762;2023-08-24T08:18:56;5.80;;;4.22;;
20491;SDS011;10404;51.468;6.762;2023-08-24T08:21:22;4.57;;;3.88;;
20491;SDS011;10404;51.468;6.762;2023-08-24T08:23:48;4.88;;;4.25;;
20491;SDS011;10404;51.468;6.762;2023-08-24T08:26:14;4.40;;;3.92;;
20491;SDS011;10404;51.468;6.762;2023-08-24T08:28:40;5.38;;;4.90;;
20491;SDS011;10404;51.468;6.762;2023-08-24T08:31:06;4.38;;;3.47;;
20491;SDS011;10404;51.468;6.762;2023-08-24T08:33:32;3.92;;;3.55;;
20491;SDS011;10404;51.468;6.762;2023-08-24T08:35:57;5.32;;;3.80;;
20491;SDS011;10404;51.468;6.762;2023-08-24T08:38:23;5.65;;;4.07;;
20491;SDS011;10404;51.468;6.762;2023-08-24T08:40:51;4.80;;;3.83;;
20491;SDS011;10404;51.468;6.762;2023-08-24T08:43:27;5.15;;;3.38;;
20491;SDS011;10404;51.468;6.762;2023-08-24T08:45:55;4.18;;;3.78;;
20491;SDS011;10404;51.468;6.762;2023-08-24T08:48:21;4.68;;;3.67;;
20491;SDS011;10404;51.468;6.762;2023-08-24T08:50:48;4.05;;;3.65;;
20491;SDS011;10404;51.468;6.762;2023-08-24T08:53:14;4.70;;;3.55;;
20491;SDS011;10404;51.468;6.762;2023-08-24T08:55:40;4.38;;;3.17;;
20491;SDS011;10404;51.468;6.762;2023-08-24T08:58:06;5.25;;;4.75;;
20491;SDS011;10404;51.468;6.762;2023-08-24T09:00:33;5.82;;;3.40;;
20491;SDS011;10404;51.468;6.762;2023-08-24T09:03:00;4.28;;;3.88;;
20491;SDS011;10404;51.468;6.762;2023-08-24T09:05:27;4.95;;;4.00;;
20491;SDS011;10404;51.468;6.762;2023-08-24T09:07:54;4.10;;;3.63;;
20491;SDS011;10404;51.468;6.762;2023-08-24T09:10:21;5.25;;;3.42;;
20491;SDS011;10404;51.468;6.762;2023-08-24T09:12:47;3.72;;;3.35;;
20491;SDS011;10404;51.468;6.762;2023-08-24T09:15:13;4.50;;;3.25;;
20491;SDS011;10404;51.468;6.762;2023-08-24T09:17:42;4.40;;;3.85;;
20491;SDS011;10404;51.468;6.762;2023-08-24T09:20:09;4.10;;;3.22;;
20491;SDS011;10404;51.468;6.762;2023-08-24T09:22:37;3.72;;;3.20;;
20491;SDS011;10404;51.468;6.762;2023-08-24T09:25:05;4.45;;;3.30;;
20491;SDS011;10404;51.468;6.762;2023-08-24T09:27:31;3.80;;;3.50;;
20491;SDS011;10404;51.468;6.762;2023-08-24T09:29:57;4.05;;;3.60;;
20491;SDS011;10404;51.468;6.762;2023-08-24T09:32:29;4.35;;;3.22;;
20491;SDS011;10404;51.468;6.762;2023-08-24T09:34:56;4.25;;;3.85;;
20491;SDS011;10404;51.468;6.762;2023-08-24T09:37:36;3.72;;;3.08;;
20491;SDS011;10404;51.468;6.762;2023-08-24T09:40:05;3.50;;;3.20;;
20491;SDS011;10404;51.468;6.762;2023-08-24T09:42:42;3.78;;;3.47;;
20491;SDS011;10404;51.468;6.762;2023-08-24T09:45:10;4.40;;;3.80;;
20491;SDS011;10404;51.468;6.762;2023-08-24T09:47:37;3.63;;;3.33;;
20491;SDS011;10404;51.468;6.762;2023-08-24T09:50:03;3.83;;;3.42;;
20491;SDS011;10404;51.468;6.762;2023-08-24T09:52:33;3.75;;;3.13;;
20491;SDS011;10404;51.468;6.762;2023-08-24T09:55:05;4.35;;;3.85;;
20491;SDS011;10404;51.468;6.762;2023-08-24T09:57:36;4.65;;;3.17;;
20491;SDS011;10404;51.468;6.762;2023-08-24T10:00:05;4.20;;;3.53;;
20491;SDS011;10404;51.468;6.762;2023-08-24T10:02:36;4.00;;;2.85;;
20491;SDS011;10404;51.468;6.762;2023-08-24T10:05:05;3.55;;;3.20;;
20491;SDS011;10404;51.468;6.762;2023-08-24T10:07:32;3.30;;;3.00;;
20491;SDS011;10404;51.468;6.762;2023-08-24T10:10:07;4.13;;;3.67;;
20491;SDS011;10404;51.468;6.762;2023-08-24T10:12:38;3.65;;;3.28;;
20491;SDS011;10404;51.468;6.762;2023-08-24T10:15:08;4.68;;;3.58;;
20491;SDS011;10404;51.468;6.762;2023-08-24T10:17:36;3.35;;;3.05;;
20491;SDS011;10404;51.468;6.762;2023-08-24T10:20:03;4.35;;;3.15;;
20491;SDS011;10404;51.468;6.762;2023-08-24T10:22:35;5.10;;;3.35;;
20491;SDS011;10404;51.468;6.762;2023-08-24T10:25:02;4.18;;;3.15;;
20491;SDS011;10404;51.468;6.762;2023-08-24T10:27:28;3.72;;;3.42;;
20491;SDS011;10404;51.468;6.762;2023-08-24T10:29:55;3.97;;;3.17;;
20491;SDS011;10404;51.468;6.762;2023-08-24T10:32:21;3.42;;;3.13;;
20491;SDS011;10404;51.468;6.762;2023-08-24T10:34:49;4.68;;;3.90;;
20491;SDS011;10404;51.468;6.762;2023-08-24T10:37:15;4.35;;;3.65;;
20491;SDS011;10404;51.468;6.762;2023-08-24T10:39:44;3.97;;;3.60;;
20491;SDS011;10404;51.468;6.762;2023-08-24T10:42:11;4.00;;;3.38;;
20491;SDS011;10404;51.468;6.762;2023-08-24T10:44:38;3.05;;;2.80;;
20491;SDS011;10404;51.468;6.762;2023-08-24T10:47:06;3.65;;;2.90;;
20491;SDS011;10404;51.468;6.762;2023-08-24T10:49:44;3.63;;;3.33;;
20491;SDS011;10404;51.468;6.762;2023-08-24T10:52:41;3.38;;;2.95;;
20491;SDS011;10404;51.468;6.762;2023-08-24T10:55:23;4.22;;;3.35;;
20491;SDS011;10404;51.468;6.762;2023-08-24T10:57:57;3.50;;;3.20;;
20491;SDS011;10404;51.468;6.762;2023-08-24T11:00:28;3.60;;;3.30;;
20491;SDS011;10404;51.468;6.762;2023-08-24T11:02:55;5.00;;;3.70;;
20491;SDS011;10404;51.468;6.762;2023-08-24T11:05:25;4.03;;;2.80;;
20491;SDS011;10404;51.468;6.762;2023-08-24T11:07:55;4.25;;;3.90;;
20491;SDS011;10404;51.468;6.762;2023-08-24T11:10:31;3.80;;;3.22;;
20491;SDS011;10404;51.468;6.762;2023-08-24T11:13:07;3.30;;;3.08;;
20491;SDS011;10404;51.468;6.762;2023-08-24T11:15:37;4.53;;;3.42;;
20491;SDS011;10404;51.468;6.762;2023-08-24T11:18:24;4.72;;;2.90;;
20491;SDS011;10404;51.468;6.762;2023-08-24T11:23:17;3.50;;;3.20;;
20491;SDS011;10404;51.468;6.762;2023-08-24T11:25:45;4.13;;;3.72;;
20491;SDS011;10404;51.468;6.762;2023-08-24T11:28:11;4.30;;;3.15;;
20491;SDS011;10404;51.468;6.762;2023-08-24T11:30:41;3.45;;;3.15;;
20491;SDS011;10404;51.468;6.762;2023-08-24T11:33:08;3.67;;;3.38;;
20491;SDS011;10404;51.468;6.762;2023-08-24T11:35:36;3.65;;;3.35;;
20491;SDS011;10404;51.468;6.762;2023-08-24T11:38:04;3.65;;;3.35;;
20491;SDS011;10404;51.468;6.762;2023-08-24T11:40:29;3.70;;;3.40;;
20491;SDS011;10404;51.468;6.762;2023-08-24T11:42:55;4.10;;;3.80;;
20491;SDS011;10404;51.468;6.762;2023-08-24T11:45:22;4.32;;;4.03;;
20491;SDS011;10404;51.468;6.762;2023-08-24T11:47:48;4.30;;;3.63;;
20491;SDS011;10404;51.468;6.762;2023-08-24T11:50:15;3.75;;;3.38;;
20491;SDS011;10404;51.468;6.762;2023-08-24T11:52:41;4.35;;;4.05;;
20491;SDS011;10404;51.468;6.762;2023-08-24T11:55:07;4.97;;;3.63;;
20491;SDS011;10404;51.468;6.762;2023-08-24T11:57:36;4.13;;;3.67;;
20491;SDS011;10404;51.468;6.762;2023-08-24T12:00:03;5.28;;;4.85;;
20491;SDS011;10404;51.468;6.762;2023-08-24T12:02:30;4.45;;;4.05;;
20491;SDS011;10404;51.468;6.762;2023-08-24T12:04:57;4.30;;;3.90;;
20491;SDS011;10404;51.468;6.762;2023-08-24T12:07:23;4.32;;;3.92;;
20491;SDS011;10404;51.468;6.762;2023-08-24T12:09:49;3.92;;;3.63;;
20491;SDS011;10404;51.468;6.762;2023-08-24T12:12:18;4.22;;;3.88;;
20491;SDS011;10404;51.468;6.762;2023-08-24T12:14:46;4.13;;;3.30;;
20491;SDS011;10404;51.468;6.762;2023-08-24T12:17:12;3.78;;;3.47;;
20491;SDS011;10404;51.468;6.762;2023-08-24T12:19:42;4.60;;;3.75;;
20491;SDS011;10404;51.468;6.762;2023-08-24T12:22:13;5.40;;;3.53;;
20491;SDS011;10404;51.468;6.762;2023-08-24T12:24:45;4.10;;;3.78;;
20491;SDS011;10404;51.468;6.762;2023-08-24T12:27:18;4.30;;;3.92;;
20491;SDS011;10404;51.468;6.762;2023-08-24T12:29:51;4.90;;;4.03;;
20491;SDS011;10404;51.468;6.762;2023-08-24T12:32:17;4.45;;;4.05;;
20491;SDS011;10404;51.468;6.762;2023-08-24T12:34:50;4.05;;;3.75;;
20491;SDS011;10404;51.468;6.762;2023-08-24T12:37:16;3.88;;;3.55;;
20491;SDS011;10404;51.468;6.762;2023-08-24T12:39:42;4.50;;;4.10;;
20491;SDS011;10404;51.468;6.762;2023-08-24T12:42:08;4.53;;;3.75;;
20491;SDS011;10404;51.468;6.762;2023-08-24T12:44:33;4.18;;;3.75;;
20491;SDS011;10404;51.468;6.762;2023-08-24T12:47:00;4.75;;;4.20;;
20491;SDS011;10404;51.468;6.762;2023-08-24T12:49:27;4.95;;;4.55;;
20491;SDS011;10404;51.468;6.762;2023-08-24T12:51:53;4.80;;;4.30;;
20491;SDS011;10404;51.468;6.762;2023-08-24T12:54:19;4.55;;;4.05;;
20491;SDS011;10404;51.468;6.762;2023-08-24T12:56:45;4.43;;;4.13;;
20491;SDS011;10404;51.468;6.762;2023-08-24T12:59:10;4.53;;;4.13;;
20491;SDS011;10404;51.468;6.762;2023-08-24T13:01:37;4.35;;;3.95;;
20491;SDS011;10404;51.468;6.762;2023-08-24T13:04:03;4.30;;;3.90;;
20491;SDS011;10404;51.468;6.762;2023-08-24T13:06:29;4.07;;;3.78;;
20491;SDS011;10404;51.468;6.762;2023-08-24T13:08:55;4.35;;;3.95;;
20491;SDS011;10404;51.468;6.762;2023-08-24T13:11:21;4.47;;;4.07;;
20491;SDS011;10404;51.468;6.762;2023-08-24T13:13:47;4.55;;;4.15;;
20491;SDS011;10404;51.468;6.762;2023-08-24T13:16:14;4.47;;;4.07;;
20491;SDS011;10404;51.468;6.762;2023-08-24T13:18:40;5.38;;;4.03;;
20491;SDS011;10404;51.468;6.762;2023-08-24T13:21:07;4.07;;;3.67;;
20491;SDS011;10404;51.468;6.762;2023-08-24T13:23:32;7.20;;;4.88;;
20491;SDS011;10404;51.468;6.762;2023-08-24T13:25:58;6.35;;;5.18;;
20491;SDS011;10404;51.468;6.762;2023-08-24T13:28:24;8.63;;;4.72;;
20491;SDS011;10404;51.468;6.762;2023-08-24T13:30:50;7.82;;;4.30;;
20491;SDS011;10404;51.468;6.762;2023-08-24T13:33:16;6.13;;;4.35;;
20491;SDS011;10404;51.468;6.762;2023-08-24T13:35:43;5.38;;;4.20;;
20491;SDS011;10404;51.468;6.762;2023-08-24T13:38:09;6.65;;;4.60;;
20491;SDS011;10404;51.468;6.762;2023-08-24T13:40:34;4.90;;;4.13;;
20491;SDS011;10404;51.468;6.762;2023-08-24T13:43:00;5.93;;;4.75;;
20491;SDS011;10404;51.468;6.762;2023-08-24T13:45:25;6.07;;;3.92;;
20491;SDS011;10404;51.468;6.762;2023-08-24T13:47:51;6.72;;;3.95;;
20491;SDS011;10404;51.468;6.762;2023-08-24T13:50:17;7.65;;;3.80;;
20491;SDS011;10404;51.468;6.762;2023-08-24T13:52:43;5.97;;;3.60;;
20491;SDS011;10404;51.468;6.762;2023-08-24T13:55:09;7.15;;;4.22;;
20491;SDS011;10404;51.468;6.762;2023-08-24T13:57:34;6.88;;;4.28;;
20491;SDS011;10404;51.468;6.762;2023-08-24T14:00:00;5.57;;;3.78;;
20491;SDS011;10404;51.468;6.762;2023-08-24T14:02:28;5.53;;;3.92;;
20491;SDS011;10404;51.468;6.762;2023-08-24T14:04:54;6.68;;;3.67;;
20491;SDS011;10404;51.468;6.762;2023-08-24T14:07:20;6.82;;;4.10;;
20491;SDS011;10404;51.468;6.762;2023-08-24T14:09:46;9.32;;;5.65;;
20491;SDS011;10404;51.468;6.762;2023-08-24T14:12:11;20.38;;;9.30;;
20491;SDS011;10404;51.468;6.762;2023-08-24T14:14:37;14.75;;;7.57;;
20491;SDS011;10404;51.468;6.762;2023-08-24T14:17:02;17.73;;;8.80;;
20491;SDS011;10404;51.468;6.762;2023-08-24T14:19:28;18.00;;;8.52;;
20491;SDS011;10404;51.468;6.762;2023-08-24T14:21:54;16.05;;;7.15;;
20491;SDS011;10404;51.468;6.762;2023-08-24T14:24:19;13.93;;;7.72;;
20491;SDS011;10404;51.468;6.762;2023-08-24T14:26:45;13.45;;;7.47;;
20491;SDS011;10404;51.468;6.762;2023-08-24T14:29:11;12.30;;;6.82;;
20491;SDS011;10404;51.468;6.762;2023-08-24T14:31:37;10.82;;;6.38;;
20491;SDS011;10404;51.468;6.762;2023-08-24T14:34:03;10.50;;;6.22;;
20491;SDS011;10404;51.468;6.762;2023-08-24T14:36:29;10.52;;;5.82;;
20491;SDS011;10404;51.468;6.762;2023-08-24T14:38:58;11.02;;;5.85;;
20491;SDS011;10404;51.468;6.762;2023-08-24T14:41:24;9.13;;;5.70;;
20491;SDS011;10404;51.468;6.762;2023-08-24T14:43:49;9.38;;;6.35;;
20491;SDS011;10404;51.468;6.762;2023-08-24T14:46:15;9.57;;;5.35;;
20491;SDS011;10404;51.468;6.762;2023-08-24T14:48:41;8.98;;;5.30;;
20491;SDS011;10404;51.468;6.762;2023-08-24T14:51:07;10.45;;;5.63;;
20491;SDS011;10404;51.468;6.762;2023-08-24T14:53:32;7.68;;;5.90;;
20491;SDS011;10404;51.468;6.762;2023-08-24T14:55:58;8.73;;;5.90;;
20491;SDS011;10404;51.468;6.762;2023-08-24T14:58:24;7.90;;;5.32;;